sensor_id;sensor_type;location;lat;lon;timestamp;pressure;altitude;pressure_sealevel;temperature;humidity
32083;BME280;18597;48.328;7.932;2022-11-04T00:01:49;98757.78;;;10.97;100.00
32083;BME280;18597;48.328;7.932;2022-11-04T00:04:18;98759.97;;;11.01;100.00
32083;BME280;18597;48.328;7.932;2022-11-04T00:06:45;98755.78;;;10.99;100.00
32083;BME280;18597;48.328;7.932;2022-11-04T00:09:17;98766.13;;;11.02;100.00
32083;BME280;18597;48.328;7.932;2022-11-04T00:11:43;98756.00;;;10.88;100.00
32083;BME280;18597;48.328;7.932;2022-11-04T00:14:31;98761.34;;;10.88;100.00
32083;BME280;18597;48.328;7.932;2022-11-04T00:16:58;98763.66;;;10.82;100.00
32083;BME280;18597;48.328;7.932;2022-11-04T00:19:53;98761.22;;;10.89;100.00
32083;BME280;18597;48.328;7.932;2022-11-04T00:22:41;98756.63;;;10.81;100.00
32083;BME280;18597;48.328;7.932;2022-11-04T00:25:27;98768.16;;;10.82;100.00
32083;BME280;18597;48.328;7.932;2022-11-04T00:28:16;98781.97;;;10.77;100.00
32083;BME280;18597;48.328;7.932;2022-11-04T00:31:06;98773.44;;;10.74;100.00
32083;BME280;18597;48.328;7.932;2022-11-04T00:33:54;98780.06;;;10.70;100.00
32083;BME280;18597;48.328;7.932;2022-11-04T00:36:23;98778.91;;;10.72;100.00
32083;BME280;18597;48.328;7.932;2022-11-04T00:38:49;98776.41;;;10.71;100.00
32083;BME280;18597;48.328;7.932;2022-11-04T00:41:15;98778.47;;;10.77;100.00
32083;BME280;18597;48.328;7.932;2022-11-04T00:43:59;98775.34;;;10.81;100.00
32083;BME280;18597;48.328;7.932;2022-11-04T00:46:27;98780.47;;;10.75;100.00
32083;BME280;18597;48.328;7.932;2022-11-04T00:48:53;98779.75;;;10.73;100.00
32083;BME280;18597;48.328;7.932;2022-11-04T00:51:19;98770.81;;;10.64;100.00
32083;BME280;18597;48.328;7.932;2022-11-04T00:53:46;98771.28;;;10.60;100.00
32083;BME280;18597;48.328;7.932;2022-11-04T00:56:12;98759.22;;;10.55;100.00
32083;BME280;18597;48.328;7.932;2022-11-04T00:58:38;98765.78;;;10.61;100.00
32083;BME280;18597;48.328;7.932;2022-11-04T01:01:13;98764.41;;;10.57;100.00
32083;BME280;18597;48.328;7.932;2022-11-04T01:03:44;98771.59;;;10.56;100.00
32083;BME280;18597;48.328;7.932;2022-11-04T01:06:10;98757.56;;;10.54;100.00
32083;BME280;18597;48.328;7.932;2022-11-04T01:08:36;98747.88;;;10.53;100.00
32083;BME280;18597;48.328;7.932;2022-11-04T01:11:04;98761.28;;;10.44;100.00
32083;BME280;18597;48.328;7.932;2022-11-04T01:13:31;98762.13;;;10.44;100.00
32083;BME280;18597;48.328;7.932;2022-11-04T01:16:02;98757.56;;;10.37;100.00
32083;BME280;18597;48.328;7.932;2022-11-04T01:18:28;98758.47;;;10.18;100.00
32083;BME280;18597;48.328;7.932;2022-11-04T01:20:59;98763.31;;;10.05;100.00
32083;BME280;18597;48.328;7.932;2022-11-04T01:23:26;98757.75;;;9.98;100.00
32083;BME280;18597;48.328;7.932;2022-11-04T01:25:51;98754.44;;;9.86;100.00
32083;BME280;18597;48.328;7.932;2022-11-04T01:28:17;98748.69;;;9.81;100.00
32083;BME280;18597;48.328;7.932;2022-11-04T01:30:43;98749.75;;;9.70;100.00
32083;BME280;18597;48.328;7.932;2022-11-04T01:33:09;98744.66;;;9.77;100.00
32083;BME280;18597;48.328;7.932;2022-11-04T01:35:34;98744.56;;;9.69;100.00
32083;BME280;18597;48.328;7.932;2022-11-04T01:38:00;98740.34;;;9.66;100.00
32083;BME280;18597;48.328;7.932;2022-11-04T01:40:26;98747.81;;;9.63;100.00
32083;BME280;18597;48.328;7.932;2022-11-04T01:42:52;98748.13;;;9.50;100.00
32083;BME280;18597;48.328;7.932;2022-11-04T01:45:20;98758.78;;;9.60;100.00
32083;BME280;18597;48.328;7.932;2022-11-04T01:48:08;98753.75;;;9.47;100.00
32083;BME280;18597;48.328;7.932;2022-11-04T01:50:38;98757.00;;;9.41;100.00
32083;BME280;18597;48.328;7.932;2022-11-04T01:53:10;98765.31;;;9.28;100.00
32083;BME280;18597;48.328;7.932;2022-11-04T01:55:44;98763.63;;;9.27;100.00
32083;BME280;18597;48.328;7.932;2022-11-04T01:58:16;98758.88;;;9.21;100.00
32083;BME280;18597;48.328;7.932;2022-11-04T02:00:44;98752.16;;;9.17;100.00
32083;BME280;18597;48.328;7.932;2022-11-04T02:03:17;98741.75;;;9.24;100.00
32083;BME280;18597;48.328;7.932;2022-11-04T02:05:45;98748.47;;;9.28;100.00
32083;BME280;18597;48.328;7.932;2022-11-04T02:08:14;98736.97;;;9.27;100.00
32083;BME280;18597;48.328;7.932;2022-11-04T02:10:48;98724.63;;;9.26;100.00
32083;BME280;18597;48.328;7.932;2022-11-04T02:13:16;98723.06;;;9.33;100.00
32083;BME280;18597;48.328;7.932;2022-11-04T02:16:26;98722.22;;;9.33;100.00
32083;BME280;18597;48.328;7.932;2022-11-04T02:25:34;98705.25;;;9.34;100.00
32083;BME280;18597;48.328;7.932;2022-11-04T02:28:32;98719.31;;;9.26;100.00
32083;BME280;18597;48.328;7.932;2022-11-04T02:31:35;98724.66;;;9.16;100.00
32083;BME280;18597;48.328;7.932;2022-11-04T02:36:56;98736.03;;;9.18;100.00
32083;BME280;18597;48.328;7.932;2022-11-04T02:42:21;98732.22;;;9.31;100.00
32083;BME280;18597;48.328;7.932;2022-11-04T02:45:18;98740.38;;;9.10;100.00
32083;BME280;18597;48.328;7.932;2022-11-04T02:47:53;98731.13;;;9.04;100.00
32083;BME280;18597;48.328;7.932;2022-11-04T02:53:25;98724.72;;;8.87;100.00
32083;BME280;18597;48.328;7.932;2022-11-04T02:55:56;98724.03;;;8.85;100.00
32083;BME280;18597;48.328;7.932;2022-11-04T02:58:46;98710.47;;;8.50;100.00
32083;BME280;18597;48.328;7.932;2022-11-04T03:01:16;98710.72;;;8.37;100.00
32083;BME280;18597;48.328;7.932;2022-11-04T03:03:49;98721.19;;;8.29;100.00
32083;BME280;18597;48.328;7.932;2022-11-04T03:06:21;98736.31;;;8.19;100.00
32083;BME280;18597;48.328;7.932;2022-11-04T03:08:51;98735.47;;;8.18;100.00
32083;BME280;18597;48.328;7.932;2022-11-04T03:11:23;98725.38;;;8.12;100.00
32083;BME280;18597;48.328;7.932;2022-11-04T03:14:14;98714.19;;;8.18;100.00
32083;BME280;18597;48.328;7.932;2022-11-04T03:16:50;98720.50;;;8.27;100.00
32083;BME280;18597;48.328;7.932;2022-11-04T03:19:55;98727.91;;;8.14;100.00
32083;BME280;18597;48.328;7.932;2022-11-04T03:22:27;98724.00;;;8.27;100.00
32083;BME280;18597;48.328;7.932;2022-11-04T03:24:54;98729.19;;;8.19;100.00
32083;BME280;18597;48.328;7.932;2022-11-04T03:30:18;98704.25;;;8.30;100.00
32083;BME280;18597;48.328;7.932;2022-11-04T03:35:21;98697.28;;;8.39;100.00
32083;BME280;18597;48.328;7.932;2022-11-04T03:37:48;98697.56;;;8.36;100.00
32083;BME280;18597;48.328;7.932;2022-11-04T03:40:16;98704.16;;;8.41;100.00
32083;BME280;18597;48.328;7.932;2022-11-04T03:42:55;98699.00;;;8.40;100.00
32083;BME280;18597;48.328;7.932;2022-11-04T03:45:24;98684.63;;;8.31;100.00
32083;BME280;18597;48.328;7.932;2022-11-04T03:47:51;98687.63;;;8.38;100.00
32083;BME280;18597;48.328;7.932;2022-11-04T03:50:29;98687.75;;;8.46;100.00
32083;BME280;18597;48.328;7.932;2022-11-04T03:52:56;98684.63;;;8.31;100.00
32083;BME280;18597;48.328;7.932;2022-11-04T04:04:21;98681.88;;;8.42;100.00
32083;BME280;18597;48.328;7.932;2022-11-04T04:06:52;98682.19;;;8.39;100.00
32083;BME280;18597;48.328;7.932;2022-11-04T04:09:25;98679.06;;;8.44;100.00
32083;BME280;18597;48.328;7.932;2022-11-04T04:12:05;98686.34;;;8.51;100.00
32083;BME280;18597;48.328;7.932;2022-11-04T04:14:46;98686.66;;;8.48;100.00
32083;BME280;18597;48.328;7.932;2022-11-04T04:17:37;98683.84;;;8.50;100.00
32083;BME280;18597;48.328;7.932;2022-11-04T04:20:18;98692.97;;;8.47;100.00
32083;BME280;18597;48.328;7.932;2022-11-04T04:22:57;98682.44;;;8.36;100.00
32083;BME280;18597;48.328;7.932;2022-11-04T04:25:27;98697.56;;;8.45;100.00
32083;BME280;18597;48.328;7.932;2022-11-04T04:28:16;98693.38;;;8.43;100.00
32083;BME280;18597;48.328;7.932;2022-11-04T04:30:44;98693.81;;;8.48;100.00
32083;BME280;18597;48.328;7.932;2022-11-04T04:33:14;98697.44;;;8.56;100.00
32083;BME280;18597;48.328;7.932;2022-11-04T04:35:56;98681.88;;;8.61;100.00
32083;BME280;18597;48.328;7.932;2022-11-04T04:38:26;98677.50;;;8.80;100.00
32083;BME280;18597;48.328;7.932;2022-11-04T04:41:24;98675.09;;;8.86;100.00
32083;BME280;18597;48.328;7.932;2022-11-04T04:44:29;98681.13;;;8.88;100.00
32083;BME280;18597;48.328;7.932;2022-11-04T04:47:20;98682.13;;;8.87;100.00
32083;BME280;18597;48.328;7.932;2022-11-04T04:49:56;98676.94;;;8.76;100.00
32083;BME280;18597;48.328;7.932;2022-11-04T04:52:25;98670.06;;;8.83;100.00
32083;BME280;18597;48.328;7.932;2022-11-04T04:54:51;98660.66;;;8.89;100.00
32083;BME280;18597;48.328;7.932;2022-11-04T04:57:17;98662.91;;;8.94;100.00
32083;BME280;18597;48.328;7.932;2022-11-04T04:59:43;98649.84;;;8.90;100.00
32083;BME280;18597;48.328;7.932;2022-11-04T05:02:09;98643.06;;;9.06;100.00
32083;BME280;18597;48.328;7.932;2022-11-04T05:04:34;98638.56;;;9.06;100.00
32083;BME280;18597;48.328;7.932;2022-11-04T05:07:00;98635.81;;;8.98;100.00
32083;BME280;18597;48.328;7.932;2022-11-04T05:09:26;98633.97;;;8.99;100.00
32083;BME280;18597;48.328;7.932;2022-11-04T05:11:52;98631.91;;;8.93;100.00
32083;BME280;18597;48.328;7.932;2022-11-04T05:14:18;98620.97;;;8.96;100.00
32083;BME280;18597;48.328;7.932;2022-11-04T05:16:44;98612.50;;;9.10;100.00
32083;BME280;18597;48.328;7.932;2022-11-04T05:19:10;98613.66;;;9.07;100.00
32083;BME280;18597;48.328;7.932;2022-11-04T05:21:36;98608.53;;;8.86;100.00
32083;BME280;18597;48.328;7.932;2022-11-04T05:24:01;98610.13;;;8.70;100.00
32083;BME280;18597;48.328;7.932;2022-11-04T05:26:27;98611.34;;;8.75;100.00
32083;BME280;18597;48.328;7.932;2022-11-04T05:28:53;98619.78;;;8.71;100.00
32083;BME280;18597;48.328;7.932;2022-11-04T05:31:19;98617.72;;;8.55;100.00
32083;BME280;18597;48.328;7.932;2022-11-04T05:33:45;98607.19;;;8.63;100.00
32083;BME280;18597;48.328;7.932;2022-11-04T05:36:14;98608.84;;;8.74;100.00
32083;BME280;18597;48.328;7.932;2022-11-04T05:38:41;98605.22;;;8.65;100.00
32083;BME280;18597;48.328;7.932;2022-11-04T05:41:10;98623.03;;;8.55;100.00
32083;BME280;18597;48.328;7.932;2022-11-04T05:43:37;98620.50;;;8.53;100.00
32083;BME280;18597;48.328;7.932;2022-11-04T05:46:03;98628.94;;;8.49;100.00
32083;BME280;18597;48.328;7.932;2022-11-04T05:48:29;98620.53;;;8.44;100.00
32083;BME280;18597;48.328;7.932;2022-11-04T05:50:55;98625.00;;;8.43;100.00
32083;BME280;18597;48.328;7.932;2022-11-04T05:53:21;98618.84;;;8.43;100.00
32083;BME280;18597;48.328;7.932;2022-11-04T05:55:47;98615.78;;;8.47;100.00
32083;BME280;18597;48.328;7.932;2022-11-04T05:58:13;98617.88;;;8.44;100.00
32083;BME280;18597;48.328;7.932;2022-11-04T06:00:38;98618.72;;;8.54;100.00
32083;BME280;18597;48.328;7.932;2022-11-04T06:03:04;98615.47;;;8.50;100.00
32083;BME280;18597;48.328;7.932;2022-11-04T06:05:30;98622.34;;;8.43;100.00
32083;BME280;18597;48.328;7.932;2022-11-04T06:07:56;98629.47;;;8.62;100.00
32083;BME280;18597;48.328;7.932;2022-11-04T06:10:23;98612.50;;;8.53;100.00
32083;BME280;18597;48.328;7.932;2022-11-04T06:12:49;98591.91;;;8.65;100.00
32083;BME280;18597;48.328;7.932;2022-11-04T06:15:15;98604.19;;;8.76;100.00
32083;BME280;18597;48.328;7.932;2022-11-04T06:17:41;98604.97;;;8.49;100.00
32083;BME280;18597;48.328;7.932;2022-11-04T06:20:07;98598.41;;;8.43;100.00
32083;BME280;18597;48.328;7.932;2022-11-04T06:22:33;98606.50;;;8.32;100.00
32083;BME280;18597;48.328;7.932;2022-11-04T06:24:59;98603.28;;;8.38;100.00
32083;BME280;18597;48.328;7.932;2022-11-04T06:27:25;98602.03;;;8.61;100.00
32083;BME280;18597;48.328;7.932;2022-11-04T06:29:51;98619.38;;;8.46;100.00
32083;BME280;18597;48.328;7.932;2022-11-04T06:32:18;98621.38;;;8.25;100.00
32083;BME280;18597;48.328;7.932;2022-11-04T06:34:44;98620.81;;;8.41;100.00
32083;BME280;18597;48.328;7.932;2022-11-04T06:37:11;98624.88;;;8.54;100.00
32083;BME280;18597;48.328;7.932;2022-11-04T06:39:37;98631.16;;;8.53;100.00
32083;BME280;18597;48.328;7.932;2022-11-04T06:42:04;98639.97;;;8.34;100.00
32083;BME280;18597;48.328;7.932;2022-11-04T06:44:30;98643.50;;;8.54;100.00
32083;BME280;18597;48.328;7.932;2022-11-04T06:46:58;98642.66;;;8.54;100.00
32083;BME280;18597;48.328;7.932;2022-11-04T06:49:24;98643.63;;;8.53;100.00
32083;BME280;18597;48.328;7.932;2022-11-04T06:51:50;98642.34;;;8.67;100.00
32083;BME280;18597;48.328;7.932;2022-11-04T06:54:17;98641.34;;;8.68;100.00
32083;BME280;18597;48.328;7.932;2022-11-04T06:56:43;98652.13;;;8.76;100.00
32083;BME280;18597;48.328;7.932;2022-11-04T06:59:15;98659.69;;;8.80;100.00
32083;BME280;18597;48.328;7.932;2022-11-04T07:01:42;98658.28;;;8.86;100.00
32083;BME280;18597;48.328;7.932;2022-11-04T07:04:08;98659.94;;;8.97;100.00
32083;BME280;18597;48.328;7.932;2022-11-04T07:06:34;98659.88;;;9.16;100.00
32083;BME280;18597;48.328;7.932;2022-11-04T07:09:02;98643.84;;;9.26;100.00
32083;BME280;18597;48.328;7.932;2022-11-04T07:11:31;98652.84;;;9.25;100.00
32083;BME280;18597;48.328;7.932;2022-11-04T07:13:57;98651.41;;;9.30;100.00
32083;BME280;18597;48.328;7.932;2022-11-04T07:16:24;98649.84;;;9.37;100.00
32083;BME280;18597;48.328;7.932;2022-11-04T07:18:50;98651.63;;;9.37;100.00
32083;BME280;18597;48.328;7.932;2022-11-04T07:21:17;98648.00;;;9.38;100.00
32083;BME280;18597;48.328;7.932;2022-11-04T07:23:43;98652.19;;;9.40;100.00
32083;BME280;18597;48.328;7.932;2022-11-04T07:26:10;98658.38;;;9.41;100.00
32083;BME280;18597;48.328;7.932;2022-11-04T07:28:37;98660.59;;;9.45;100.00
32083;BME280;18597;48.328;7.932;2022-11-04T07:31:06;98661.88;;;9.69;100.00
32083;BME280;18597;48.328;7.932;2022-11-04T07:33:32;98658.97;;;9.62;100.00
32083;BME280;18597;48.328;7.932;2022-11-04T07:36:03;98660.22;;;9.68;100.00
32083;BME280;18597;48.328;7.932;2022-11-04T07:38:29;98658.75;;;9.73;100.00
32083;BME280;18597;48.328;7.932;2022-11-04T07:40:57;98649.25;;;9.89;100.00
32083;BME280;18597;48.328;7.932;2022-11-04T07:43:23;98653.00;;;9.96;100.00
32083;BME280;18597;48.328;7.932;2022-11-04T07:46:07;98649.72;;;10.20;100.00
32083;BME280;18597;48.328;7.932;2022-11-04T07:48:35;98642.28;;;10.23;100.00
32083;BME280;18597;48.328;7.932;2022-11-04T07:51:02;98643.19;;;10.14;100.00
32083;BME280;18597;48.328;7.932;2022-11-04T07:53:29;98650.34;;;10.14;100.00
32083;BME280;18597;48.328;7.932;2022-11-04T07:55:56;98639.53;;;10.33;100.00
32083;BME280;18597;48.328;7.932;2022-11-04T07:58:23;98635.41;;;10.39;100.00
32083;BME280;18597;48.328;7.932;2022-11-04T08:00:50;98632.34;;;10.51;100.00
32083;BME280;18597;48.328;7.932;2022-11-04T08:03:16;98627.03;;;10.77;100.00
32083;BME280;18597;48.328;7.932;2022-11-04T08:05:42;98628.84;;;11.03;100.00
32083;BME280;18597;48.328;7.932;2022-11-04T08:08:08;98624.78;;;11.25;100.00
32083;BME280;18597;48.328;7.932;2022-11-04T08:10:34;98623.72;;;11.44;100.00
32083;BME280;18597;48.328;7.932;2022-11-04T08:13:00;98619.56;;;11.49;100.00
32083;BME280;18597;48.328;7.932;2022-11-04T08:15:26;98618.31;;;11.35;100.00
32083;BME280;18597;48.328;7.932;2022-11-04T08:17:53;98610.88;;;11.63;100.00
32083;BME280;18597;48.328;7.932;2022-11-04T08:20:19;98605.47;;;11.81;100.00
32083;BME280;18597;48.328;7.932;2022-11-04T08:22:45;98593.78;;;12.07;100.00
32083;BME280;18597;48.328;7.932;2022-11-04T08:25:10;98602.53;;;12.33;100.00
32083;BME280;18597;48.328;7.932;2022-11-04T08:27:38;98591.44;;;12.53;100.00
32083;BME280;18597;48.328;7.932;2022-11-04T08:30:04;98593.44;;;12.59;100.00
32083;BME280;18597;48.328;7.932;2022-11-04T08:32:30;98601.00;;;12.63;100.00
32083;BME280;18597;48.328;7.932;2022-11-04T08:34:56;98584.41;;;12.60;100.00
32083;BME280;18597;48.328;7.932;2022-11-04T08:37:22;98600.47;;;12.68;100.00
32083;BME280;18597;48.328;7.932;2022-11-04T08:39:48;98591.28;;;12.70;100.00
32083;BME280;18597;48.328;7.932;2022-11-04T08:42:14;98596.13;;;12.67;100.00
32083;BME280;18597;48.328;7.932;2022-11-04T08:44:40;98603.50;;;12.57;100.00
32083;BME280;18597;48.328;7.932;2022-11-04T08:47:05;98604.16;;;12.59;100.00
32083;BME280;18597;48.328;7.932;2022-11-04T08:49:35;98597.13;;;12.58;100.00
32083;BME280;18597;48.328;7.932;2022-11-04T08:52:02;98589.09;;;12.66;100.00
32083;BME280;18597;48.328;7.932;2022-11-04T08:54:28;98594.09;;;12.85;100.00
32083;BME280;18597;48.328;7.932;2022-11-04T08:56:54;98583.63;;;13.06;100.00
32083;BME280;18597;48.328;7.932;2022-11-04T08:59:20;98584.44;;;13.31;100.00
32083;BME280;18597;48.328;7.932;2022-11-04T09:01:46;98583.34;;;13.49;100.00
32083;BME280;18597;48.328;7.932;2022-11-04T09:04:12;98591.78;;;13.69;100.00
32083;BME280;18597;48.328;7.932;2022-11-04T09:06:41;98589.72;;;13.79;100.00
32083;BME280;18597;48.328;7.932;2022-11-04T09:09:12;98597.75;;;13.79;100.00
32083;BME280;18597;48.328;7.932;2022-11-04T09:11:41;98594.56;;;13.83;100.00
32083;BME280;18597;48.328;7.932;2022-11-04T09:14:08;98605.25;;;13.92;100.00
32083;BME280;18597;48.328;7.932;2022-11-04T09:16:35;98613.13;;;13.62;98.37
32083;BME280;18597;48.328;7.932;2022-11-04T09:19:02;98616.28;;;13.26;99.09
32083;BME280;18597;48.328;7.932;2022-11-04T09:21:28;98616.63;;;13.31;97.28
32083;BME280;18597;48.328;7.932;2022-11-04T09:23:54;98622.59;;;13.42;97.91
32083;BME280;18597;48.328;7.932;2022-11-04T09:26:22;98614.16;;;13.61;94.72
32083;BME280;18597;48.328;7.932;2022-11-04T09:28:54;98626.78;;;13.83;86.89
32083;BME280;18597;48.328;7.932;2022-11-04T09:31:21;98629.63;;;14.05;85.20
32083;BME280;18597;48.328;7.932;2022-11-04T09:33:47;98618.69;;;14.14;82.90
32083;BME280;18597;48.328;7.932;2022-11-04T09:36:13;98633.03;;;14.30;83.89
32083;BME280;18597;48.328;7.932;2022-11-04T09:38:41;98639.09;;;14.24;76.52
32083;BME280;18597;48.328;7.932;2022-11-04T09:42:03;98621.66;;;14.20;78.66
32083;BME280;18597;48.328;7.932;2022-11-04T09:44:26;98624.59;;;14.56;76.80
32083;BME280;18597;48.328;7.932;2022-11-04T09:47:00;98623.00;;;14.47;74.92
32083;BME280;18597;48.328;7.932;2022-11-04T09:49:34;98620.78;;;14.50;74.91
32083;BME280;18597;48.328;7.932;2022-11-04T09:52:12;98617.44;;;13.71;78.17
32083;BME280;18597;48.328;7.932;2022-11-04T09:54:47;98625.47;;;13.40;78.63
32083;BME280;18597;48.328;7.932;2022-11-04T09:57:17;98629.41;;;13.52;81.78
32083;BME280;18597;48.328;7.932;2022-11-04T09:59:44;98629.91;;;13.56;78.95
32083;BME280;18597;48.328;7.932;2022-11-04T10:05:29;98629.50;;;14.06;75.68
32083;BME280;18597;48.328;7.932;2022-11-04T10:08:44;98621.72;;;14.11;79.02
32083;BME280;18597;48.328;7.932;2022-11-04T10:11:38;98619.50;;;14.46;72.53
32083;BME280;18597;48.328;7.932;2022-11-04T10:20:25;98618.47;;;14.85;68.58
32083;BME280;18597;48.328;7.932;2022-11-04T10:23:01;98613.53;;;14.74;69.27
32083;BME280;18597;48.328;7.932;2022-11-04T10:25:46;98618.81;;;14.67;68.64
32083;BME280;18597;48.328;7.932;2022-11-04T10:28:17;98618.13;;;14.65;70.71
32083;BME280;18597;48.328;7.932;2022-11-04T10:30:47;98610.19;;;14.71;66.58
32083;BME280;18597;48.328;7.932;2022-11-04T10:33:36;98618.41;;;14.55;69.88
32083;BME280;18597;48.328;7.932;2022-11-04T10:36:08;98619.72;;;14.59;72.42
32083;BME280;18597;48.328;7.932;2022-11-04T10:38:50;98623.13;;;14.53;71.85
32083;BME280;18597;48.328;7.932;2022-11-04T10:41:38;98621.09;;;14.55;74.01
32083;BME280;18597;48.328;7.932;2022-11-04T10:44:15;98624.84;;;14.23;72.60
32083;BME280;18597;48.328;7.932;2022-11-04T10:47:36;98615.94;;;14.23;71.13
32083;BME280;18597;48.328;7.932;2022-11-04T10:52:46;98618.53;;;13.85;74.28
32083;BME280;18597;48.328;7.932;2022-11-04T10:58:22;98619.03;;;13.49;79.83
32083;BME280;18597;48.328;7.932;2022-11-04T11:00:49;98615.13;;;13.68;79.77
32083;BME280;18597;48.328;7.932;2022-11-04T11:03:29;98611.63;;;13.91;78.72
32083;BME280;18597;48.328;7.932;2022-11-04T11:06:18;98620.41;;;14.30;77.31
32083;BME280;18597;48.328;7.932;2022-11-04T11:08:45;98612.50;;;14.60;74.97
32083;BME280;18597;48.328;7.932;2022-11-04T11:11:12;98608.34;;;14.87;75.75
32083;BME280;18597;48.328;7.932;2022-11-04T11:13:43;98607.44;;;15.09;73.15
32083;BME280;18597;48.328;7.932;2022-11-04T11:16:25;98593.78;;;15.40;73.38
32083;BME280;18597;48.328;7.932;2022-11-04T11:19:17;98601.97;;;15.62;71.12
32083;BME280;18597;48.328;7.932;2022-11-04T11:21:48;98600.00;;;15.70;64.92
32083;BME280;18597;48.328;7.932;2022-11-04T11:24:27;98601.09;;;15.76;63.26
32083;BME280;18597;48.328;7.932;2022-11-04T11:26:58;98599.75;;;15.65;63.87
32083;BME280;18597;48.328;7.932;2022-11-04T11:29:31;98596.13;;;15.58;64.04
32083;BME280;18597;48.328;7.932;2022-11-04T11:32:14;98598.53;;;15.53;66.56
32083;BME280;18597;48.328;7.932;2022-11-04T11:34:42;98597.88;;;15.51;63.18
32083;BME280;18597;48.328;7.932;2022-11-04T11:37:21;98592.63;;;15.13;64.19
32083;BME280;18597;48.328;7.932;2022-11-04T11:39:48;98588.34;;;15.04;65.55
32083;BME280;18597;48.328;7.932;2022-11-04T11:42:14;98586.94;;;14.93;66.94
32083;BME280;18597;48.328;7.932;2022-11-04T11:44:52;98582.97;;;15.04;67.56
32083;BME280;18597;48.328;7.932;2022-11-04T11:47:34;98582.22;;;15.25;66.48
32083;BME280;18597;48.328;7.932;2022-11-04T11:50:17;98586.50;;;15.05;63.63
32083;BME280;18597;48.328;7.932;2022-11-04T11:52:47;98588.13;;;14.76;66.81
32083;BME280;18597;48.328;7.932;2022-11-04T11:55:22;98582.03;;;14.82;68.54
32083;BME280;18597;48.328;7.932;2022-11-04T11:58:04;98588.25;;;14.97;70.75
32083;BME280;18597;48.328;7.932;2022-11-04T12:00:41;98578.78;;;15.02;69.88
32083;BME280;18597;48.328;7.932;2022-11-04T12:03:31;98583.56;;;14.39;66.82
32083;BME280;18597;48.328;7.932;2022-11-04T12:10:15;98581.78;;;14.54;72.33
32083;BME280;18597;48.328;7.932;2022-11-04T12:16:32;98580.28;;;14.89;75.21
32083;BME280;18597;48.328;7.932;2022-11-04T12:19:16;98593.16;;;14.94;73.33
32083;BME280;18597;48.328;7.932;2022-11-04T12:22:04;98589.44;;;15.10;71.59
32083;BME280;18597;48.328;7.932;2022-11-04T12:25:15;98588.72;;;15.31;69.03
32083;BME280;18597;48.328;7.932;2022-11-04T12:27:58;98585.19;;;15.45;66.92
32083;BME280;18597;48.328;7.932;2022-11-04T12:30:30;98584.63;;;15.64;67.54
32083;BME280;18597;48.328;7.932;2022-11-04T12:34:01;98597.06;;;15.65;64.19
32083;BME280;18597;48.328;7.932;2022-11-04T12:36:40;98588.00;;;15.88;66.99
32083;BME280;18597;48.328;7.932;2022-11-04T12:40:08;98580.56;;;16.11;65.31
32083;BME280;18597;48.328;7.932;2022-11-04T12:46:08;98579.69;;;16.04;61.93
32083;BME280;18597;48.328;7.932;2022-11-04T12:55:47;98584.66;;;16.07;61.31
32083;BME280;18597;48.328;7.932;2022-11-04T13:01:48;98593.25;;;15.96;61.84
32083;BME280;18597;48.328;7.932;2022-11-04T13:04:23;98596.78;;;15.96;62.19
32083;BME280;18597;48.328;7.932;2022-11-04T13:07:07;98594.47;;;15.93;62.21
32083;BME280;18597;48.328;7.932;2022-11-04T13:09:55;98596.56;;;15.76;64.75
32083;BME280;18597;48.328;7.932;2022-11-04T13:12:36;98594.81;;;15.69;67.30
32083;BME280;18597;48.328;7.932;2022-11-04T13:15:23;98593.69;;;15.63;67.58
32083;BME280;18597;48.328;7.932;2022-11-04T13:17:56;98598.81;;;15.73;62.79
32083;BME280;18597;48.328;7.932;2022-11-04T13:20:40;98602.13;;;15.75;62.66
32083;BME280;18597;48.328;7.932;2022-11-04T13:23:17;98599.38;;;16.04;64.71
32083;BME280;18597;48.328;7.932;2022-11-04T13:25:46;98594.91;;;16.40;61.36
32083;BME280;18597;48.328;7.932;2022-11-04T13:28:17;98592.97;;;16.55;56.25
32083;BME280;18597;48.328;7.932;2022-11-04T13:31:10;98602.75;;;16.56;56.09
32083;BME280;18597;48.328;7.932;2022-11-04T13:38:58;98598.16;;;16.28;57.81
32083;BME280;18597;48.328;7.932;2022-11-04T13:44:20;98611.63;;;16.50;59.02
32083;BME280;18597;48.328;7.932;2022-11-04T13:46:53;98616.88;;;16.15;57.24
32083;BME280;18597;48.328;7.932;2022-11-04T13:49:25;98620.41;;;16.16;60.27
32083;BME280;18597;48.328;7.932;2022-11-04T13:52:08;98617.81;;;16.07;61.45
32083;BME280;18597;48.328;7.932;2022-11-04T13:54:45;98616.03;;;15.78;58.84
32083;BME280;18597;48.328;7.932;2022-11-04T13:57:22;98620.34;;;15.43;60.22
32083;BME280;18597;48.328;7.932;2022-11-04T14:02:52;98623.13;;;14.91;64.86
32083;BME280;18597;48.328;7.932;2022-11-04T14:08:17;98627.94;;;14.58;67.08
32083;BME280;18597;48.328;7.932;2022-11-04T14:13:40;98628.28;;;14.32;69.17
32083;BME280;18597;48.328;7.932;2022-11-04T14:16:38;98618.84;;;14.13;70.81
32083;BME280;18597;48.328;7.932;2022-11-04T14:19:45;98627.31;;;14.02;72.71
32083;BME280;18597;48.328;7.932;2022-11-04T14:22:14;98627.25;;;13.87;75.81
32083;BME280;18597;48.328;7.932;2022-11-04T14:24:42;98631.22;;;13.60;76.32
32083;BME280;18597;48.328;7.932;2022-11-04T14:27:35;98633.34;;;13.42;77.97
32083;BME280;18597;48.328;7.932;2022-11-04T14:30:04;98640.03;;;13.46;81.56
32083;BME280;18597;48.328;7.932;2022-11-04T14:32:37;98645.44;;;13.38;84.55
32083;BME280;18597;48.328;7.932;2022-11-04T14:35:05;98648.47;;;13.26;87.04
32083;BME280;18597;48.328;7.932;2022-11-04T14:37:33;98653.00;;;13.18;88.88
32083;BME280;18597;48.328;7.932;2022-11-04T14:40:04;98652.16;;;13.17;92.59
32083;BME280;18597;48.328;7.932;2022-11-04T14:42:53;98656.56;;;12.94;94.02
32083;BME280;18597;48.328;7.932;2022-11-04T14:45:30;98657.06;;;12.81;94.48
32083;BME280;18597;48.328;7.932;2022-11-04T14:48:14;98664.63;;;12.86;92.79
32083;BME280;18597;48.328;7.932;2022-11-04T14:50:48;98665.94;;;12.82;95.41
32083;BME280;18597;48.328;7.932;2022-11-04T14:53:25;98667.97;;;12.71;98.64